Weather observations for the past three days for
Brigham City Regional Airport
Metric (Imperial)
Date Time (mdt) Wind (kph) Vis. (km) Weather Sky Cond. Temperature (ºC) Relative Humidity Wind Chill (°C) Heat Index (°C) Pressure Precipitation (cm)
Air Dwpt 6 hour altimeter (cm) sea level (mb) 1 hr 3 hr 6 hr
Max. Min.
10 04:55 W 4 16.09 Fair CLR 6 2 76% 76.61 0.0
10 04:35 N 6 16.09 Fair CLR 7 1 66% 76.61 0.0
10 04:15 W 7 16.09 Fair CLR 8 0 57% 7 76.58 0.0
10 03:55 NW 13 16.09 Fair CLR 8 1 62% 6 76.58 0.0
10 03:35 NW 11 16.09 Fair CLR 8 0 57% 6 76.58 0.0
10 03:15 NW 7 16.09 Fair CLR 9 0 54% 8 76.56 0.0
10 02:55 NW 6 16.09 Fair CLR 9 1 58% 76.56 0.0
10 02:35 Vrbl 4 16.09 Fair CLR 9 4 71% 76.56 0.0
10 02:15 Vrbl 4 16.09 Fair CLR 9 3 66% 76.56 0.0
10 01:55 Vrbl 4 16.09 Fair CLR 10 2 58% 76.56 0.0
10 01:35 NW 11 16.09 Fair CLR 10 2 58% 9 76.56 0.0
10 01:15 NW 9 16.09 Fair CLR 10 1 54% 9 76.53 0.0
10 00:55 N 4 16.09 Fair CLR 11 3 58% 76.53 0.0
10 00:35 NW 6 16.09 Fair CLR 12 1 47% 76.53 0.0
10 00:15 Vrbl 6 16.09 Partly Cloudy SCT100 13 0 41% 76.53 0.0
09 23:55 NW 2 16.09 Mostly Cloudy BKN100 13 2 23.4 12.4 47% 76.5 0.0
09 23:35 S 4 16.09 Mostly Cloudy BKN100 13 2 47% 76.5 0.0
09 23:15 W 11 16.09 Partly Cloudy SCT110 14 0 39% 76.48 0.0
09 22:55 W 11 16.09 Fair CLR 15 0 36% 76.48 0.0
09 22:35 SW 11 16.09 Fair CLR 16 0 34% 76.45 0.0
09 22:15 Calm 16.09 Fair CLR 17 1 34% 76.45 0.0
09 21:55 Vrbl 2 16.09 Fair CLR 16 3 42% 76.43 0.0
09 21:15 Calm 16.09 Fair CLR 17 1 34% 76.38 0.0
09 20:55 NW 13 16.09 Fair CLR 18 1 32% 76.35 0.0
09 20:35 NW 11 16.09 Fair CLR 18 0 30% 76.35 0.0
09 20:15 NW 13 16.09 Fair CLR 20 -1 24% 76.33 0.0
09 19:55 NW 13 16.09 Fair CLR 21 -1 23% 76.33 0.0
09 19:35 NW 15 16.09 Fair CLR 22 -2 20% 76.33 0.0
09 19:15 NW 7 16.09 Fair CLR 23 -4 16% 76.3 0.0
09 18:55 S 6 16.09 Fair CLR 23 -3 17% 76.3 0.0
09 18:35 S 20 16.09 Fair CLR 23 -3 17% 76.3 0.0
09 18:15 S 19 16.09 Fair CLR 23 -3 17% 76.3 0.0
09 17:55 S 19 G 26 16.09 Fair CLR 23 -2 23.4 19.4 19% 76.3 0.0
09 17:35 S 15 16.09 Fair CLR 23 -3 17% 76.3 0.0
09 17:15 S 11 16.09 Fair CLR 23 -2 19% 76.33 0.0
09 16:55 SE 13 16.09 Fair CLR 23 -2 19% 76.35 0.0
09 16:35 S 17 16.09 Fair CLR 23 -2 19% 76.35 0.0
09 16:15 S 13 G 31 16.09 Fair CLR 23 -1 20% 76.38 0.0
09 15:55 S 20 16.09 Fair CLR 22 0 23% 76.38 0.0
09 15:35 S 22 G 30 16.09 Fair CLR 22 -1 22% 76.4 0.0
09 15:15 S 24 G 39 16.09 Fair CLR 22 -1 22% 76.4 0.0
09 14:55 SW 28 16.09 Fair CLR 22 -1 22% 76.4 0.0
09 14:35 SW 13 G 33 16.09 Fair CLR 23 -2 19% 76.4 0.0
09 14:15 W 22 G 43 16.09 Fair CLR 23 -7 13% 76.4 0.0
09 13:55 Vrbl 7 G 26 16.09 Fair CLR 22 -6 15% 76.43 0.0
09 13:35 Vrbl 7 16.09 Fair CLR 22 -6 15% 76.45 0.0
09 13:15 NW 17 G 26 16.09 Fair CLR 21 -5 17% 76.45 0.0
09 12:55 W 11 16.09 Fair CLR 21 -5 17% 76.45 0.0
09 12:35 W 15 16.09 Fair CLR 20 -5 18% 76.48 0.0
09 12:15 Vrbl 9 16.09 Fair CLR 20 -7 16% 76.48 0.0
09 11:55 N 15 16.09 Fair CLR 20 -6 19.8 9.6 17% 76.48 0.0
09 11:35 W 11 16.09 Fair CLR 19 -4 21% 76.5 0.0
09 11:15 NW 20 16.09 Fair CLR 19 -3 22% 76.48 0.0
09 10:55 Vrbl 9 16.09 Fair CLR 19 -3 22% 76.48 0.0
09 10:35 NW 15 16.09 Fair CLR 18 -3 24% 76.48 0.0
09 10:15 NW 9 16.09 Fair CLR 18 -4 22% 76.5 0.0
09 09:55 N 11 16.09 Fair CLR 17 -2 27% 76.48 0.0
09 09:35 Vrbl 7 8.05 Fair with Haze CLR 16 0 34% 76.5 0.0
09 09:15 N 6 16.09 Fair CLR 16 0 34% 76.48 0.0
09 08:55 NE 7 16.09 Fair CLR 15 1 39% 76.48 0.0
09 08:35 N 7 16.09 Fair CLR 14 2 44% 76.48 0.0
09 08:15 N 4 16.09 Fair CLR 13 3 51% 76.45 0.0
09 07:55 Calm 16.09 Fair CLR 13 0 41% 76.45 0.0
09 07:35 NW 4 16.09 Fair CLR 11 0 47% 76.43 0.0
09 07:15 W 2 16.09 Fair CLR 10 1 54% 76.43 0.0
09 06:55 S 4 16.09 Fair CLR 10 0 50% 76.4 0.0
09 06:35 NE 9 16.09 Fair CLR 13 -2 36% 76.38 0.0
09 06:15 SE 6 16.09 Fair CLR 11 0 47% 76.38 0.0
09 05:55 W 7 16.09 Fair CLR 12 -1 17.8 10.8 41% 76.35 0.0
09 05:35 E 7 16.09 Fair CLR 14 -1 36% 76.35 0.0
09 05:15 SE 4 16.09 Fair CLR 14 -3 31% 76.33 0.0
09 04:55 Vrbl 6 16.09 Fair CLR 12 -1 41% 76.33 0.0
09 04:35 NW 19 16.09 Fair CLR 14 -3 31% 76.33 0.0
09 04:15 NW 19 16.09 Fair CLR 14 -1 36% 76.33 0.0
09 03:55 NE 7 16.09 Fair CLR 12 0 44% 76.33 0.0
09 03:35 NW 13 16.09 Fair CLR 14 -3 31% 76.3 0.0
09 03:15 NW 19 16.09 Fair CLR 15 -2 31% 76.3 0.0
09 02:55 NW 35 G 54 16.09 Fair and Breezy CLR 17 -4 24% 76.25 0.0
09 02:35 NW 26 16.09 Fair CLR 16 -3 27% 76.25 0.0
09 01:55 NW 17 16.09 Fair CLR 16 -3 27% 76.25 0.0
09 01:35 NW 13 16.09 Fair CLR 16 -2 29% 76.25 0.0
09 01:15 N 17 G 35 16.09 Fair CLR 13 4 55% 76.23 0.0
09 00:55 Vrbl 2 14.48 Fair CLR 14 4 51% 76.23 0.0
09 00:35 Vrbl 4 16.09 Fair CLR 14 5 55% 76.2 0.0
09 00:15 NE 4 11.27 Fair with Haze CLR 13 7 67% 76.2 0.0
08 23:55 N 6 4.02 Fair with Haze CLR 14 4 24.6 12.9 51% 76.17 0.0
08 23:35 NE 4 4.02 Fair with Haze CLR 15 5 51% 76.17 0.0
08 23:15 N 6 16.09 Fair CLR 16 4 45% 76.17 0.0
08 22:55 N 9 3.22 Fair with Haze CLR 15 9 68% 76.15 0.0
08 22:35 Vrbl 4 16.09 Fair CLR 16 4 45% 76.15 0.0
08 22:15 SE 6 16.09 Fair CLR 17 6 49% 76.12 0.0
08 21:55 NW 6 16.09 Fair CLR 17 6 49% 76.12 0.0
08 21:35 NW 11 16.09 Fair CLR 17 6 49% 76.12 0.0
08 21:15 NW 9 16.09 Fair CLR 18 5 43% 76.1 0.0
08 20:55 NW 6 16.09 Fair CLR 21 4 33% 76.07 0.0
08 20:35 N 6 16.09 Fair CLR 22 4 31% 76.05 0.0
08 20:15 NE 6 16.09 Fair CLR 22 8 41% 76.02 0.0
08 19:55 NE 6 16.09 Fair CLR 22 6 36% 76.02 0.0
08 19:35 S 7 16.09 Fair CLR 22 3 29% 76.02 0.0
08 19:15 S 9 16.09 Fair CLR 23 3 27% 76.02 0.0
08 18:35 S 17 16.09 Fair CLR 24 1 22% 25 76.02 0.0
08 18:15 S 9 16.09 Fair CLR 24 1 22% 25 76.05 0.0
08 17:55 S 15 16.09 Fair CLR 24 1 24.7 20.9 22% 25 76.05 0.0
08 17:35 SW 9 16.09 Fair CLR 24 1 22% 25 76.05 0.0
08 17:15 Vrbl 7 16.09 Fair CLR 24 -1 19% 24 76.07 0.0
08 16:55 SW 17 16.09 Fair CLR 24 2 24% 25 76.07 0.0
08 16:15 S 15 16.09 Fair CLR 24 1 22% 25 76.12 0.0
08 15:55 S 17 16.09 Fair CLR 23 1 23% 76.15 0.0
08 15:35 S 11 G 28 16.09 Fair CLR 23 2 25% 76.17 0.0
08 15:15 S 13 16.09 Fair CLR 23 2 25% 76.2 0.0
08 14:55 Vrbl 4 16.09 Fair CLR 23 1 23% 76.2 0.0
08 14:35 S 19 G 26 16.09 Fair CLR 22 1 25% 76.2 0.0
08 14:15 S 9 G 28 16.09 Fair CLR 23 2 25% 76.23 0.0
08 13:55 Vrbl 6 16.09 Fair CLR 22 0 23% 76.23 0.0
08 13:35 W 13 16.09 Fair CLR 23 2 25% 76.23 0.0
08 13:15 Vrbl 6 G 26 16.09 Fair CLR 22 1 25% 76.25 0.0
08 12:55 Vrbl 7 16.09 Fair CLR 22 2 27% 76.28 0.0
08 12:35 SW 11 16.09 Fair CLR 22 1 25% 76.28 0.0
08 12:15 SW 9 16.09 Fair CLR 21 1 27% 76.3 0.0
08 11:55 Vrbl 6 16.09 Fair CLR 21 2 21.6 6.1 29% 76.3 0.0
08 11:35 Vrbl 4 16.09 Fair CLR 21 3 31% 76.3 0.0
08 11:15 Vrbl 6 16.09 Fair CLR 20 3 33% 76.3 0.0
08 10:55 Vrbl 7 16.09 Fair CLR 20 2 30% 76.33 0.0
08 10:35 Vrbl 4 16.09 Fair CLR 20 2 30% 76.3 0.0
08 10:15 Calm 9.66 Light Rain Haze CLR 19 3 35% 76.3 0.0
08 09:55 Vrbl 4 16.09 Fair CLR 18 6 46% 76.3 0.0
08 09:35 NE 6 14.48 Fair CLR 17 7 52% 76.3 0.0
08 09:15 Calm 16.09 Fair CLR 16 7 55% 76.3 0.0
08 08:55 Vrbl 4 16.09 Fair CLR 14 6 59% 76.3 0.0
08 08:35 E 2 12.87 Light Drizzle CLR 12 6 67% 76.3 0.0
08 08:15 N 6 16.09 Fair CLR 11 6 72% 76.3 0.0
08 07:55 E 4 16.09 Fair CLR 10 6 76% 76.28 0.0
08 07:15 NE 4 16.09 Fair CLR 8 5 82% 76.23 0.0
08 06:35 E 7 16.09 Fair CLR 6 4 87% 5 76.2 0.0
08 06:15 NE 6 16.09 Fair CLR 8 4 76% 76.2 0.0
08 05:55 NW 4 16.09 Fair CLR 9 4 14.3 8.4 71% 76.17 0.0
08 05:35 NW 4 16.09 Fair CLR 10 5 71% 76.17 0.0
08 05:15 SE 7 16.09 Fair CLR 9 4 71% 8 76.15 0.0
08 04:55 Calm 16.09 Fair CLR 9 4 71% 76.12 0.0
08 04:35 NW 4 16.09 Fair CLR 9 4 71% 76.12 0.0
08 04:15 Vrbl 4 16.09 Fair CLR 10 6 76% 76.12 0.0
08 03:55 N 9 16.09 Fair CLR 10 5 71% 9 76.12 0.0
08 03:35 E 6 16.09 Fair CLR 11 5 67% 76.12 0.0
08 03:15 Vrbl 4 16.09 Fair CLR 11 2 54% 76.12 0.0
08 02:55 S 2 16.09 Fair CLR 12 3 54% 76.12 0.0
08 02:35 S 6 16.09 Fair CLR 12 4 58% 76.12 0.0
08 02:15 E 6 16.09 Fair CLR 11 4 62% 76.12 0.0
08 01:35 Vrbl 4 16.09 Fair CLR 11 5 67% 76.15 0.0
08 01:15 SE 6 16.09 Fair CLR 12 5 63% 76.12 0.0
08 00:55 N 6 16.09 Fair CLR 12 5 63% 76.12 0.0
08 00:35 E 7 16.09 Fair CLR 11 6 72% 76.12 0.0
08 00:15 N 6 16.09 Fair CLR 13 6 63% 76.1 0.0
07 23:55 Vrbl 2 16.09 Fair CLR 13 6 23.4 11.8 63% 76.1 0.0
07 23:35 SE 6 16.09 Fair CLR 12 8 77% 76.1 0.0
07 23:15 N 2 16.09 Fair CLR 14 7 63% 76.1 0.0
07 22:55 NW 6 16.09 Fair CLR 15 6 55% 76.1 0.0
07 22:35 NW 4 16.09 Fair CLR 16 5 48% 76.1 0.0
07 22:15 Calm 16.09 Fair CLR 16 9 63% 76.07 0.0
07 21:55 Calm 16.09 Fair CLR 17 8 56% 76.05 0.0
07 21:35 E 2 16.09 Fair CLR 18 7 49% 76.05 0.0
07 20:55 NE 2 16.09 Fair CLR 19 8 49% 76.02 0.0
07 20:35 NE 6 16.09 Fair CLR 19 8 49% 76 0.0
07 20:15 S 11 16.09 Fair CLR 21 6 38% 76 0.0
07 19:55 S 11 16.09 Fair CLR 22 5 33% 75.97 0.0
07 19:35 S 11 16.09 Fair CLR 23 4 29% 76 0.0
07 19:15 Vrbl 9 16.09 Fair CLR 23 3 27% 76 0.0
07 18:55 Vrbl 11 16.09 Fair CLR 23 3 27% 76 0.0
07 18:35 S 13 16.09 Fair CLR 23 3 27% 76.02 0.0
07 18:15 S 9 16.09 Fair CLR 23 3 27% 76.02 0.0
07 17:55 S 19 16.09 Fair CLR 23 3 23.2 19.3 27% 76.02 0.0
07 17:35 SW 15 16.09 Fair CLR 23 3 27% 76.02 0.0
07 17:15 S 24 G 30 16.09 Fair CLR 23 3 27% 76.02 0.0
07 16:55 S 17 G 28 16.09 Fair CLR 23 3 27% 76.05 0.0
07 16:35 SW 19 16.09 Fair CLR 23 2 25% 76.1 0.0
07 16:15 S 11 16.09 Fair CLR 22 2 27% 76.12 0.0
07 15:55 Vrbl 9 16.09 Fair CLR 22 2 27% 76.12 0.0
07 15:35 Vrbl 9 16.09 Fair CLR 22 1 25% 76.15 0.0
07 15:15 S 17 16.09 Fair CLR 21 1 27% 76.17 0.0
07 14:55 S 13 16.09 Fair CLR 20 1 28% 76.23 0.0
07 14:35 S 13 16.09 Fair CLR 21 0 25% 76.23 0.0
07 14:15 S 17 16.09 Fair CLR 20 0 26% 76.25 0.0
07 13:35 S 22 G 30 16.09 Fair CLR 20 1 28% 76.25 0.0
07 13:15 S 22 16.09 Fair CLR 20 1 28% 76.28 0.0
07 12:55 S 22 16.09 Fair CLR 20 0 26% 76.28 0.0
07 12:35 S 22 G 31 16.09 Fair CLR 20 0 26% 76.3 0.0
07 12:15 S 20 G 33 16.09 Fair CLR 20 0 26% 76.3 0.0
07 11:55 S 20 G 28 16.09 Fair CLR 20 -1 19.6 9.8 24% 76.3 0.0
07 11:15 S 22 16.09 Fair CLR 19 0 28% 76.33 0.0
07 10:55 S 26 16.09 Fair CLR 18 0 30% 76.33 0.0
07 10:35 S 26 16.09 Partly Cloudy SCT110 17 1 34% 76.35 0.0
07 09:55 S 28 G 35 16.09 A Few Clouds FEW110 17 1 34% 76.35 0.0
07 09:35 S 22 G 31 16.09 Mostly Cloudy BKN110 16 1 36% 76.38 0.0
07 09:15 S 6 16.09 Mostly Cloudy BKN110 15 1 39% 76.38 0.0
07 08:55 SW 11 16.09 Partly Cloudy SCT110 14 0 39% 76.38 0.0
07 08:35 S 15 16.09 Partly Cloudy SCT110 15 0 36% 76.38 0.0
07 08:15 NE 9 16.09 Mostly Cloudy BKN110 14 1 41% 76.38 0.0
07 07:55 N 7 16.09 Overcast OVC110 13 2 47% 76.35 0.0
07 07:35 N 13 16.09 Overcast OVC110 11 3 58% 76.35 0.0
07 07:15 N 9 16.09 Overcast OVC110 10 4 67% 9 76.33 0.0
07 06:55 N 11 16.09 Overcast OVC110 11 3 58% 76.35 0.0
07 06:35 Vrbl 4 16.09 Mostly Cloudy BKN100 11 1 50% 76.33 0.0
07 06:15 W 7 16.09 Overcast OVC100 12 1 47% 76.35 0.0
07 05:55 W 6 16.09 Overcast OVC100 11 1 13.9 10.8 50% 76.35 0.0
07 05:35 W 9 16.09 Mostly Cloudy FEW075 BKN090 13 0 41% 76.35 0.0
Date Time (mdt) Wind (kph) Vis. (km) Weather Sky Cond. Air Dwpt Max. Min. Relative Humidity Wind Chill (°C) Heat Index (°C) altimeter (cm) sea level (mb) 1 hr 3 hr 6 hr
6 hour
Temperature (ºC) Pressure Precipitation (cm)